Time;durP1;ratioP1;P1;durP2;ratioP2;P2;SDS_P1;SDS_P2;PMS_P1;PMS_P2;Temp;Humidity;BMP_temperature;BMP_pressure;BME280_temperature;BME280_humidity;BME280_pressure;Samples;Min_cycle;Max_cycle;Signal;HPM_P1;HPM_P2
2022/05/29 00:01:50;;;;;;;21.30;4.18;;;;;;;;;;5053874;28;20048;-66
2022/05/29 00:04:16;;;;;;;24.38;5.13;;;;;;;;;;5053881;28;20048;-66
2022/05/29 00:06:44;;;;;;;23.92;4.60;;;;;;;;;;5052720;28;20485;-66
2022/05/29 00:09:11;;;;;;;25.77;4.85;;;;;;;;;;5054530;28;20045;-67
2022/05/29 00:11:37;;;;;;;19.63;4.97;;;;;;;;;;5052372;28;20049;-66
2022/05/29 00:14:03;;;;;;;21.48;5.10;;;;;;;;;;5053728;28;20081;-66
2022/05/29 00:16:30;;;;;;;26.13;5.75;;;;;;;;;;5053632;28;20132;-66
2022/05/29 00:18:56;;;;;;;23.67;4.75;;;;;;;;;;5053675;28;20044;-66
2022/05/29 00:21:22;;;;;;;25.67;5.65;;;;;;;;;;5052401;28;20063;-66
2022/05/29 00:23:51;;;;;;;24.83;5.18;;;;;;;;;;5053965;28;20044;-64
2022/05/29 00:26:21;;;;;;;20.33;5.00;;;;;;;;;;5053846;28;20134;-65
2022/05/29 00:28:47;;;;;;;20.42;5.00;;;;;;;;;;5053380;28;20111;-63
2022/05/29 00:31:13;;;;;;;;;;;;;;;;;;5052759;28;20045;-65
2022/05/29 00:33:40;;;;;;;18.10;4.55;;;;;;;;;;5053278;28;19921;-65
2022/05/29 00:36:07;;;;;;;18.95;4.70;;;;;;;;;;5053433;28;20091;-65
2022/05/29 00:38:38;;;;;;;20.33;5.15;;;;;;;;;;5053804;28;20059;-65
2022/05/29 00:41:10;;;;;;;21.27;5.13;;;;;;;;;;5053426;28;20063;-65
2022/05/29 00:43:37;;;;;;;18.00;5.13;;;;;;;;;;5053062;28;20529;-65
2022/05/29 00:46:04;;;;;;;20.95;5.13;;;;;;;;;;5053292;28;20056;-65
2022/05/29 00:48:30;;;;;;;22.02;5.40;;;;;;;;;;5052043;28;20071;-65
2022/05/29 00:50:59;;;;;;;18.67;5.28;;;;;;;;;;5053208;28;20124;-65
2022/05/29 00:53:27;;;;;;;27.35;5.53;;;;;;;;;;5053251;28;20088;-65
2022/05/29 00:56:01;;;;;;;22.63;5.90;;;;;;;;;;5051877;28;20056;-66
2022/05/29 00:58:27;;;;;;;23.60;5.90;;;;;;;;;;5053171;28;20048;-65
2022/05/29 01:00:55;;;;;;;24.50;5.47;;;;;;;;;;5053749;28;20041;-65
2022/05/29 01:03:21;;;;;;;17.55;5.53;;;;;;;;;;5053082;28;20048;-65
2022/05/29 01:05:47;;;;;;;19.67;4.80;;;;;;;;;;5052103;28;20052;-66
2022/05/29 01:08:16;;;;;;;22.23;5.13;;;;;;;;;;5053314;28;20102;-65
2022/05/29 01:10:42;;;;;;;25.10;6.28;;;;;;;;;;5053243;28;20081;-64
2022/05/29 01:13:11;;;;;;;20.70;5.35;;;;;;;;;;5053532;28;20049;-65
2022/05/29 01:15:48;;;;;;;19.20;5.35;;;;;;;;;;5053543;28;20138;-65
2022/05/29 01:18:26;;;;;;;19.30;4.68;;;;;;;;;;5053422;28;20127;-63
2022/05/29 01:21:04;;;;;;;18.70;4.65;;;;;;;;;;5053068;28;20037;-64
2022/05/29 01:23:50;;;;;;;21.65;4.93;;;;;;;;;;5056151;28;20037;-65
2022/05/29 01:26:32;;;;;;;18.40;4.75;;;;;;;;;;5056398;28;20500;-64
2022/05/29 01:28:59;;;;;;;22.90;5.25;;;;;;;;;;5057397;28;20053;-64
2022/05/29 01:31:44;;;;;;;20.60;5.72;;;;;;;;;;5056682;28;20051;-63
2022/05/29 01:34:11;;;;;;;23.00;5.50;;;;;;;;;;5056466;28;20045;-64
2022/05/29 01:36:37;;;;;;;19.55;5.43;;;;;;;;;;5056681;28;20045;-66
2022/05/29 01:39:07;;;;;;;21.38;5.38;;;;;;;;;;5056519;28;20053;-65
2022/05/29 01:41:33;;;;;;;19.70;5.10;;;;;;;;;;5056818;28;20191;-65
2022/05/29 01:44:15;;;;;;;20.05;4.90;;;;;;;;;;5056427;28;20040;-64
2022/05/29 01:46:44;;;;;;;23.83;5.15;;;;;;;;;;5056436;28;20064;-66
2022/05/29 01:49:30;;;;;;;21.58;5.30;;;;;;;;;;5056305;28;20048;-64
2022/05/29 01:52:05;;;;;;;17.35;5.18;;;;;;;;;;5055856;28;20373;-66
2022/05/29 01:54:32;;;;;;;17.20;4.93;;;;;;;;;;5056403;28;20437;-66
2022/05/29 01:57:09;;;;;;;17.33;4.40;;;;;;;;;;5056630;28;20053;-65
2022/05/29 01:59:56;;;;;;;20.67;5.35;;;;;;;;;;5056102;28;20052;-66
2022/05/29 02:02:26;;;;;;;22.33;5.28;;;;;;;;;;5056558;28;20084;-66
2022/05/29 02:04:54;;;;;;;16.33;4.47;;;;;;;;;;5055760;28;20045;-66
2022/05/29 02:10:10;;;;;;;22.67;4.97;;;;;;;;;;5054497;28;20464;-66
2022/05/29 02:12:38;;;;;;;19.15;5.15;;;;;;;;;;5055653;28;20052;-64
2022/05/29 02:15:08;;;;;;;19.45;4.18;;;;;;;;;;5055388;28;20136;-65
2022/05/29 02:17:42;;;;;;;17.77;4.72;;;;;;;;;;5055788;28;20084;-64
2022/05/29 02:20:14;;;;;;;19.80;4.57;;;;;;;;;;5055580;28;20346;-65
2022/05/29 02:22:41;;;;;;;19.67;4.68;;;;;;;;;;5055459;28;20045;-66
2022/05/29 02:25:15;;;;;;;16.00;4.50;;;;;;;;;;5055502;28;20049;-65
2022/05/29 02:27:47;;;;;;;16.27;4.65;;;;;;;;;;5055492;28;20053;-65
2022/05/29 02:30:14;;;;;;;18.50;4.40;;;;;;;;;;5055710;28;20083;-65
2022/05/29 02:33:09;;;;;;;15.75;4.65;;;;;;;;;;5054909;28;20067;-65
2022/05/29 02:35:42;;;;;;;19.02;5.18;;;;;;;;;;5028553;28;20057;-64
2022/05/29 02:38:13;;;;;;;21.13;4.55;;;;;;;;;;5053856;28;20106;-65
2022/05/29 02:40:49;;;;;;;22.27;4.60;;;;;;;;;;5054121;28;20063;-63
2022/05/29 02:43:33;;;;;;;19.95;4.70;;;;;;;;;;5055783;28;20049;-64
2022/05/29 02:46:18;;;;;;;15.38;4.20;;;;;;;;;;5055212;28;20080;-63
2022/05/29 02:48:48;;;;;;;19.23;4.25;;;;;;;;;;5054372;28;20452;-65
2022/05/29 02:51:19;;;;;;;16.23;4.28;;;;;;;;;;5054628;28;20134;-63
2022/05/29 02:53:46;;;;;;;20.30;4.63;;;;;;;;;;5054568;28;20461;-63
2022/05/29 02:56:13;;;;;;;19.08;4.80;;;;;;;;;;5054590;28;20052;-63
2022/05/29 02:58:40;;;;;;;18.00;4.28;;;;;;;;;;5054821;28;20044;-65
2022/05/29 03:01:16;;;;;;;19.23;4.32;;;;;;;;;;5054601;28;20103;-64
2022/05/29 03:03:51;;;;;;;16.02;4.55;;;;;;;;;;5054911;28;20040;-64
2022/05/29 03:06:29;;;;;;;19.50;4.55;;;;;;;;;;5054781;28;20099;-65
2022/05/29 03:08:58;;;;;;;22.42;5.38;;;;;;;;;;5054892;28;20041;-64
2022/05/29 03:11:32;;;;;;;18.02;5.53;;;;;;;;;;5054536;28;20041;-64
2022/05/29 03:14:13;;;;;;;22.75;4.38;;;;;;;;;;5052381;28;20053;-64
2022/05/29 03:16:57;;;;;;;20.73;4.70;;;;;;;;;;5053526;28;20541;-64
2022/05/29 03:19:29;;;;;;;15.55;4.45;;;;;;;;;;5053341;28;20111;-65
2022/05/29 03:21:58;;;;;;;22.08;4.45;;;;;;;;;;5052902;28;20124;-65
2022/05/29 03:24:38;;;;;;;24.95;4.88;;;;;;;;;;5052883;28;20052;-64
2022/05/29 03:27:09;;;;;;;23.17;4.68;;;;;;;;;;5052678;28;20052;-65
2022/05/29 03:29:38;;;;;;;16.52;3.72;;;;;;;;;;5052786;28;20041;-65
2022/05/29 03:32:06;;;;;;;17.55;3.60;;;;;;;;;;5052109;28;20041;-65
2022/05/29 03:34:32;;;;;;;17.42;4.20;;;;;;;;;;5051713;28;20135;-66
2022/05/29 03:36:58;;;;;;;13.43;4.13;;;;;;;;;;5052518;28;20087;-65
2022/05/29 03:39:24;;;;;;;20.42;3.92;;;;;;;;;;5052052;28;20048;-65
2022/05/29 03:41:52;;;;;;;13.80;3.50;;;;;;;;;;5051395;28;20055;-65
2022/05/29 03:44:19;;;;;;;13.90;3.05;;;;;;;;;;5052077;28;20045;-65
2022/05/29 03:46:45;;;;;;;17.52;3.75;;;;;;;;;;5052106;28;20052;-65
2022/05/29 03:49:12;;;;;;;14.85;3.42;;;;;;;;;;5052556;28;20053;-64
2022/05/29 03:51:38;;;;;;;17.17;3.70;;;;;;;;;;5051752;28;20491;-65
2022/05/29 03:54:05;;;;;;;16.48;3.88;;;;;;;;;;5051201;28;20510;-64
2022/05/29 03:56:31;;;;;;;;;;;;;;;;;;5052418;28;20048;-65
2022/05/29 03:58:57;;;;;;;16.40;3.85;;;;;;;;;;5051103;28;20371;-65
2022/05/29 04:01:23;;;;;;;17.90;3.60;;;;;;;;;;5051349;28;20040;-64
2022/05/29 04:03:49;;;;;;;18.23;4.50;;;;;;;;;;5051025;28;20186;-65
2022/05/29 04:06:16;;;;;;;20.73;4.40;;;;;;;;;;5051897;28;20052;-65
2022/05/29 04:14:11;;;;;;;24.98;4.22;;;;;;;;;;5052462;28;20045;-64
2022/05/29 04:16:38;;;;;;;19.63;4.10;;;;;;;;;;5051704;28;20475;-65
2022/05/29 04:19:04;;;;;;;;;;;;;;;;;;5051898;28;20400;-66
2022/05/29 04:21:30;;;;;;;26.23;4.78;;;;;;;;;;5051575;28;19927;-65
2022/05/29 04:23:56;;;;;;;28.35;5.53;;;;;;;;;;5050288;28;20099;-66
2022/05/29 04:26:22;;;;;;;32.88;4.38;;;;;;;;;;5051688;28;20052;-66
2022/05/29 04:28:48;;;;;;;17.65;4.13;;;;;;;;;;5050322;28;20425;-65
2022/05/29 04:31:20;;;;;;;21.27;4.85;;;;;;;;;;5051549;28;20476;-67
2022/05/29 04:33:46;;;;;;;19.58;4.15;;;;;;;;;;5051860;28;20057;-66
2022/05/29 04:36:13;;;;;;;19.58;4.97;;;;;;;;;;5051544;28;20094;-66
2022/05/29 04:38:39;;;;;;;20.70;4.55;;;;;;;;;;5049737;28;20511;-66
2022/05/29 04:41:06;;;;;;;19.05;4.65;;;;;;;;;;5033253;28;20137;-65
2022/05/29 04:43:32;;;;;;;21.02;4.60;;;;;;;;;;5050220;28;20133;-66
2022/05/29 04:45:58;;;;;;;23.85;5.07;;;;;;;;;;5051500;28;20507;-65
2022/05/29 04:48:25;;;;;;;22.13;4.95;;;;;;;;;;5051370;28;20053;-66
2022/05/29 04:50:57;;;;;;;19.98;4.85;;;;;;;;;;5050458;28;20080;-66
2022/05/29 04:53:23;;;;;;;19.38;4.60;;;;;;;;;;5051708;28;20052;-66
2022/05/29 04:55:51;;;;;;;22.25;5.15;;;;;;;;;;5050890;28;20083;-65
2022/05/29 04:58:18;;;;;;;21.30;4.20;;;;;;;;;;5055286;28;20059;-66
2022/05/29 05:00:44;;;;;;;20.83;4.95;;;;;;;;;;5054307;28;20045;-66
2022/05/29 05:03:10;;;;;;;19.10;4.13;;;;;;;;;;5054956;28;20493;-66
2022/05/29 05:05:37;;;;;;;21.98;4.20;;;;;;;;;;5055408;28;20080;-66
2022/05/29 05:08:03;;;;;;;21.85;4.82;;;;;;;;;;5054526;28;20045;-66
2022/05/29 05:10:29;;;;;;;24.02;4.55;;;;;;;;;;5055444;28;20040;-65
2022/05/29 05:12:55;;;;;;;24.27;4.28;;;;;;;;;;5055306;28;20048;-66
2022/05/29 05:15:21;;;;;;;19.88;4.88;;;;;;;;;;5055366;28;20045;-66
2022/05/29 05:17:48;;;;;;;28.35;4.78;;;;;;;;;;5053942;28;20052;-66
2022/05/29 05:20:14;;;;;;;;;;;;;;;;;;5054387;28;20130;-66
2022/05/29 05:22:41;;;;;;;29.77;5.30;;;;;;;;;;5054007;28;19921;-67
2022/05/29 05:25:08;;;;;;;20.23;4.82;;;;;;;;;;5055529;28;20049;-66
2022/05/29 05:27:34;;;;;;;23.73;4.47;;;;;;;;;;5055133;28;20040;-66
2022/05/29 05:30:00;;;;;;;24.23;4.82;;;;;;;;;;5054388;28;20137;-65
2022/05/29 05:32:26;;;;;;;23.17;3.90;;;;;;;;;;5055015;28;20114;-67
2022/05/29 05:34:52;;;;;;;28.20;4.90;;;;;;;;;;5053672;28;20489;-65
2022/05/29 05:37:18;;;;;;;24.80;4.32;;;;;;;;;;5053789;28;20095;-65
2022/05/29 05:39:44;;;;;;;26.17;5.07;;;;;;;;;;5054622;28;20091;-67
2022/05/29 05:42:10;;;;;;;18.42;4.80;;;;;;;;;;5054567;28;20223;-67
2022/05/29 05:44:37;;;;;;;24.08;4.43;;;;;;;;;;5054821;28;20041;-66
2022/05/29 05:47:03;;;;;;;19.65;4.88;;;;;;;;;;5054610;28;20048;-66
2022/05/29 05:49:29;;;;;;;20.40;4.63;;;;;;;;;;5054809;28;20075;-67
2022/05/29 05:51:58;;;;;;;27.10;4.82;;;;;;;;;;5053751;28;20045;-66
2022/05/29 05:54:24;;;;;;;23.02;4.85;;;;;;;;;;5054964;28;20368;-68
2022/05/29 05:56:51;;;;;;;22.17;4.47;;;;;;;;;;5054576;28;20472;-66
2022/05/29 05:59:17;;;;;;;21.60;4.65;;;;;;;;;;5054399;28;20064;-65
2022/05/29 06:01:43;;;;;;;22.45;4.53;;;;;;;;;;5054777;28;20045;-66
2022/05/29 06:04:09;;;;;;;19.27;4.00;;;;;;;;;;5055363;28;20090;-65
2022/05/29 06:06:35;;;;;;;;;;;;;;;;;;5054598;28;20045;-68
2022/05/29 06:09:01;;;;;;;23.75;5.07;;;;;;;;;;5053388;28;19928;-66
2022/05/29 06:11:28;;;;;;;20.42;4.00;;;;;;;;;;5053232;28;20044;-65
2022/05/29 06:13:55;;;;;;;18.83;3.63;;;;;;;;;;5054157;28;20053;-66
2022/05/29 06:16:21;;;;;;;19.35;3.88;;;;;;;;;;5054236;28;20131;-64
2022/05/29 06:18:47;;;;;;;20.50;4.53;;;;;;;;;;5054032;28;20183;-67
2022/05/29 06:21:14;;;;;;;23.80;4.72;;;;;;;;;;5054130;28;20492;-67
2022/05/29 06:23:41;;;;;;;17.27;3.67;;;;;;;;;;5054177;28;20087;-66
2022/05/29 06:26:08;;;;;;;20.02;4.05;;;;;;;;;;5054308;28;20056;-66
2022/05/29 06:28:35;;;;;;;20.10;3.55;;;;;;;;;;5053753;28;20056;-65
2022/05/29 06:31:01;;;;;;;;;;;;;;;;;;5054185;28;20081;-65
2022/05/29 06:33:29;;;;;;;16.02;2.83;;;;;;;;;;5053738;28;20023;-66
2022/05/29 06:35:55;;;;;;;17.13;3.50;;;;;;;;;;5054547;28;20049;-65
2022/05/29 06:38:21;;;;;;;16.48;3.13;;;;;;;;;;5052537;28;20389;-65
2022/05/29 06:40:49;;;;;;;18.85;3.70;;;;;;;;;;5053638;28;20210;-67
2022/05/29 06:43:16;;;;;;;18.02;3.40;;;;;;;;;;5053893;28;20099;-66
2022/05/29 06:45:42;;;;;;;17.83;3.25;;;;;;;;;;5053654;28;20056;-67
2022/05/29 06:48:08;;;;;;;20.58;3.13;;;;;;;;;;5036764;28;20059;-68
2022/05/29 06:50:34;;;;;;;17.70;3.42;;;;;;;;;;5052315;28;20045;-66
2022/05/29 06:53:00;;;;;;;14.85;3.90;;;;;;;;;;5052116;28;20172;-67
2022/05/29 06:55:26;;;;;;;23.00;3.63;;;;;;;;;;5053513;28;20055;-66
2022/05/29 06:57:52;;;;;;;18.08;4.00;;;;;;;;;;5053337;28;20527;-67
2022/05/29 07:08:43;;;;;;;17.40;3.72;;;;;;;;;;5052422;28;20056;-66
2022/05/29 07:11:15;;;;;;;15.77;3.40;;;;;;;;;;5053977;28;20122;-65
2022/05/29 07:13:41;;;;;;;19.38;3.40;;;;;;;;;;5052785;28;20120;-65
2022/05/29 07:16:08;;;;;;;16.45;3.53;;;;;;;;;;5053674;28;20040;-66
2022/05/29 07:18:34;;;;;;;18.13;3.40;;;;;;;;;;5052935;28;20075;-66
2022/05/29 07:21:04;;;;;;;14.23;3.40;;;;;;;;;;5051571;28;20043;-66
2022/05/29 07:23:30;;;;;;;17.45;3.67;;;;;;;;;;5053209;28;20048;-67
2022/05/29 07:25:57;;;;;;;19.58;3.08;;;;;;;;;;5052708;28;20044;-66
2022/05/29 07:28:23;;;;;;;14.90;3.70;;;;;;;;;;5052792;28;20052;-67
2022/05/29 07:30:49;;;;;;;;;;;;;;;;;;5051562;28;20495;-67
2022/05/29 07:33:15;;;;;;;13.82;3.22;;;;;;;;;;5053004;28;19920;-67
2022/05/29 07:35:41;;;;;;;12.68;2.65;;;;;;;;;;5052411;28;20052;-64
2022/05/29 07:38:08;;;;;;;9.43;2.33;;;;;;;;;;5052585;28;20134;-65
2022/05/29 07:40:34;;;;;;;9.32;2.30;;;;;;;;;;5052203;28;20045;-69
2022/05/29 07:43:19;;;;;;;11.35;2.25;;;;;;;;;;5053149;28;20437;-66
2022/05/29 07:45:47;;;;;;;14.77;2.50;;;;;;;;;;5052308;28;20070;-66
2022/05/29 07:48:15;;;;;;;11.50;2.47;;;;;;;;;;5053077;28;20056;-65
2022/05/29 07:50:41;;;;;;;9.05;2.92;;;;;;;;;;5052462;28;20053;-65
2022/05/29 07:53:08;;;;;;;12.63;2.30;;;;;;;;;;5054334;28;20045;-64
2022/05/29 07:55:37;;;;;;;11.02;2.65;;;;;;;;;;5034954;28;20041;-66
2022/05/29 07:58:03;;;;;;;15.15;2.83;;;;;;;;;;5052113;28;20520;-67
2022/05/29 08:00:29;;;;;;;13.00;2.35;;;;;;;;;;5051717;28;20056;-64
2022/05/29 08:02:55;;;;;;;10.38;2.20;;;;;;;;;;5052144;28;20083;-70
2022/05/29 08:05:22;;;;;;;11.43;2.45;;;;;;;;;;5052425;28;20477;-65
2022/05/29 08:07:49;;;;;;;9.95;2.30;;;;;;;;;;5051991;28;20157;-65
2022/05/29 08:10:16;;;;;;;13.90;2.60;;;;;;;;;;5052038;28;20144;-65
2022/05/29 08:12:42;;;;;;;18.67;2.58;;;;;;;;;;5052430;28;20047;-65
2022/05/29 08:15:10;;;;;;;14.30;2.50;;;;;;;;;;5052100;28;20158;-66
2022/05/29 08:17:36;;;;;;;14.35;2.80;;;;;;;;;;5051224;28;20052;-66
2022/05/29 08:20:02;;;;;;;;;;;;;;;;;;5052255;28;20052;-65
2022/05/29 08:22:28;;;;;;;12.40;2.40;;;;;;;;;;5052908;28;19924;-67
2022/05/29 08:30:43;;;;;;;15.45;2.88;;;;;;;;;;5051519;28;20041;-67
2022/05/29 08:33:19;;;;;;;13.40;2.90;;;;;;;;;;5052289;28;20095;-66
2022/05/29 08:35:46;;;;;;;14.48;3.10;;;;;;;;;;5052286;28;20049;-66
2022/05/29 08:38:13;;;;;;;15.77;3.20;;;;;;;;;;5052423;28;20049;-66
2022/05/29 08:40:44;;;;;;;19.73;3.20;;;;;;;;;;5050815;28;20048;-65
2022/05/29 08:43:15;;;;;;;16.85;3.33;;;;;;;;;;5051761;28;20508;-65
2022/05/29 08:45:42;;;;;;;16.40;3.58;;;;;;;;;;5051590;28;20057;-65
2022/05/29 08:48:09;;;;;;;18.67;3.85;;;;;;;;;;5050576;28;20507;-66
2022/05/29 08:50:47;;;;;;;20.38;3.53;;;;;;;;;;5051835;28;20041;-66
2022/05/29 08:53:22;;;;;;;14.95;2.80;;;;;;;;;;5051361;28;20095;-66
2022/05/29 08:55:51;;;;;;;14.85;3.33;;;;;;;;;;5050404;28;20049;-66
2022/05/29 08:58:43;;;;;;;9.65;2.15;;;;;;;;;;5051254;28;20049;-69
2022/05/29 09:01:15;;;;;;;15.77;2.83;;;;;;;;;;5047730;28;20401;-66
2022/05/29 09:03:46;;;;;;;8.73;2.15;;;;;;;;;;5050516;28;20049;-67
2022/05/29 09:06:17;;;;;;;12.55;2.60;;;;;;;;;;5050371;28;20052;-66
2022/05/29 09:08:48;;;;;;;8.85;2.20;;;;;;;;;;5050890;28;20492;-67
2022/05/29 09:11:17;;;;;;;10.80;2.50;;;;;;;;;;5034211;28;20497;-66
2022/05/29 09:13:45;;;;;;;9.38;2.47;;;;;;;;;;5051342;28;20049;-66
2022/05/29 09:16:14;;;;;;;21.77;3.88;;;;;;;;;;5049590;28;20485;-67
2022/05/29 09:19:00;;;;;;;14.32;2.78;;;;;;;;;;5051505;28;20091;-65
2022/05/29 09:21:31;;;;;;;19.77;3.05;;;;;;;;;;5050325;28;20445;-65
2022/05/29 09:24:01;;;;;;;16.20;3.00;;;;;;;;;;5051193;28;20049;-68
2022/05/29 09:26:31;;;;;;;18.17;3.22;;;;;;;;;;5051179;28;20053;-66
2022/05/29 09:28:57;;;;;;;15.40;2.85;;;;;;;;;;5034131;28;20044;-65
2022/05/29 09:31:25;;;;;;;15.98;3.28;;;;;;;;;;5050311;28;20041;-66
2022/05/29 09:33:52;;;;;;;16.55;3.05;;;;;;;;;;5049946;28;20052;-66
2022/05/29 09:36:44;;;;;;;14.48;2.85;;;;;;;;;;5050273;28;20049;-67
2022/05/29 09:39:24;;;;;;;14.20;2.83;;;;;;;;;;5050407;28;20060;-66
2022/05/29 09:41:54;;;;;;;15.35;3.13;;;;;;;;;;5052758;28;20107;-65
2022/05/29 09:44:21;;;;;;;12.45;3.15;;;;;;;;;;5053727;28;20049;-66
2022/05/29 09:46:49;;;;;;;18.35;2.88;;;;;;;;;;5054938;28;20041;-64
2022/05/29 09:49:41;;;;;;;12.15;2.70;;;;;;;;;;5054432;28;20048;-65
2022/05/29 09:52:15;;;;;;;10.50;2.60;;;;;;;;;;5054429;28;20056;-65
2022/05/29 09:54:45;;;;;;;11.60;2.40;;;;;;;;;;5054290;28;20048;-65
2022/05/29 09:57:11;;;;;;;11.73;2.53;;;;;;;;;;5054216;28;20092;-66
2022/05/29 09:59:43;;;;;;;18.40;3.00;;;;;;;;;;5054264;28;20136;-67
2022/05/29 10:02:31;;;;;;;11.02;2.42;;;;;;;;;;5054266;28;20045;-68
2022/05/29 10:04:59;;;;;;;11.65;2.67;;;;;;;;;;5054445;28;20132;-66
2022/05/29 10:07:28;;;;;;;14.57;2.70;;;;;;;;;;5053482;28;20132;-67
2022/05/29 10:09:59;;;;;;;13.68;3.85;;;;;;;;;;5054373;28;20428;-66
2022/05/29 10:12:35;;;;;;;16.25;3.65;;;;;;;;;;5054197;28;20428;-66
2022/05/29 10:15:01;;;;;;;16.20;3.47;;;;;;;;;;5054113;28;20132;-66
2022/05/29 10:17:28;;;;;;;19.42;3.75;;;;;;;;;;5054471;28;20053;-66
2022/05/29 10:19:54;;;;;;;24.15;4.35;;;;;;;;;;5053583;28;20539;-64
2022/05/29 10:22:36;;;;;;;16.48;3.63;;;;;;;;;;5036780;28;20041;-65
2022/05/29 10:25:13;;;;;;;15.85;2.83;;;;;;;;;;5053743;28;20048;-65
2022/05/29 10:27:39;;;;;;;;;;;;;;;;;;5054208;28;20053;-66
2022/05/29 10:30:07;;;;;;;15.20;2.83;;;;;;;;;;5054455;28;20254;-66
2022/05/29 10:32:35;;;;;;;12.65;2.70;;;;;;;;;;5053754;28;20052;-65
2022/05/29 10:35:24;;;;;;;12.23;2.50;;;;;;;;;;5054289;28;20049;-66
2022/05/29 10:37:52;;;;;;;14.05;2.63;;;;;;;;;;5047534;28;20068;-64
2022/05/29 10:40:23;;;;;;;12.40;2.80;;;;;;;;;;5053790;28;20044;-66
2022/05/29 10:42:51;;;;;;;17.52;2.50;;;;;;;;;;5054032;28;20065;-66
2022/05/29 10:45:26;;;;;;;12.90;2.72;;;;;;;;;;5053676;28;20045;-67
2022/05/29 10:48:15;;;;;;;14.65;3.22;;;;;;;;;;5053641;28;20045;-68
2022/05/29 10:50:55;;;;;;;14.68;2.50;;;;;;;;;;5050595;28;20473;-67
2022/05/29 10:53:24;;;;;;;14.35;2.42;;;;;;;;;;5053360;28;20055;-65
2022/05/29 10:55:54;;;;;;;9.55;2.28;;;;;;;;;;5052561;28;20055;-66
2022/05/29 10:58:32;;;;;;;16.25;3.00;;;;;;;;;;5053579;28;20045;-68
2022/05/29 11:01:04;;;;;;;14.05;3.00;;;;;;;;;;5053624;28;20104;-63
2022/05/29 11:03:47;;;;;;;11.25;2.38;;;;;;;;;;5053598;28;20057;-63
2022/05/29 11:06:33;;;;;;;23.70;2.72;;;;;;;;;;5052348;28;20184;-64
2022/05/29 11:09:11;;;;;;;12.95;3.30;;;;;;;;;;5052935;28;20456;-64
2022/05/29 11:11:47;;;;;;;20.52;3.08;;;;;;;;;;5053116;28;20055;-65
2022/05/29 11:14:22;;;;;;;13.73;2.70;;;;;;;;;;5052296;28;20045;-66
2022/05/29 11:17:00;;;;;;;15.15;2.70;;;;;;;;;;5052757;28;20133;-65
2022/05/29 11:19:26;;;;;;;15.48;2.60;;;;;;;;;;5053772;28;20051;-65
2022/05/29 11:21:55;;;;;;;13.98;3.00;;;;;;;;;;5052112;28;20049;-65
2022/05/29 11:24:27;;;;;;;17.30;3.20;;;;;;;;;;5052739;28;20060;-64
2022/05/29 11:27:02;;;;;;;17.52;3.90;;;;;;;;;;5052587;28;20045;-66
2022/05/29 11:29:28;;;;;;;17.98;3.38;;;;;;;;;;5053472;28;20388;-66
2022/05/29 11:32:03;;;;;;;20.67;3.90;;;;;;;;;;5052175;28;20052;-64
2022/05/29 11:34:29;;;;;;;17.23;3.40;;;;;;;;;;5052415;28;20052;-65
2022/05/29 11:37:14;;;;;;;14.25;3.08;;;;;;;;;;5052626;28;20053;-66
2022/05/29 11:39:50;;;;;;;18.10;3.35;;;;;;;;;;5052645;28;20084;-64
2022/05/29 11:42:25;;;;;;;15.63;4.03;;;;;;;;;;5051932;28;20064;-65
2022/05/29 11:44:55;;;;;;;18.10;3.22;;;;;;;;;;5052226;28;20504;-66
2022/05/29 11:53:10;;;;;;;11.52;2.50;;;;;;;;;;5053404;28;20045;-64
2022/05/29 11:55:39;;;;;;;17.25;3.03;;;;;;;;;;5052508;28;20095;-67
2022/05/29 11:58:12;;;;;;;16.42;2.72;;;;;;;;;;5051457;28;20041;-66
2022/05/29 12:00:38;;;;;;;26.67;4.40;;;;;;;;;;5052508;28;20056;-66
2022/05/29 12:03:13;;;;;;;15.32;3.35;;;;;;;;;;5052501;28;20052;-66
2022/05/29 12:05:52;;;;;;;14.35;3.00;;;;;;;;;;5051752;28;20041;-66
2022/05/29 12:08:22;;;;;;;16.27;2.70;;;;;;;;;;5051350;28;20495;-66
2022/05/29 12:11:07;;;;;;;13.68;2.40;;;;;;;;;;5052469;28;20056;-65
2022/05/29 12:13:37;;;;;;;14.82;2.97;;;;;;;;;;5052601;28;20191;-65
2022/05/29 12:16:09;;;;;;;10.98;2.97;;;;;;;;;;5052217;28;20053;-65
2022/05/29 12:18:44;;;;;;;16.33;3.75;;;;;;;;;;5051013;28;20366;-68
2022/05/29 12:21:14;;;;;;;12.00;3.03;;;;;;;;;;5052567;28;20127;-65
2022/05/29 12:23:45;;;;;;;15.43;3.05;;;;;;;;;;5052209;28;20405;-67
2022/05/29 12:26:32;;;;;;;14.48;3.60;;;;;;;;;;5051716;28;20049;-67
2022/05/29 12:29:04;;;;;;;18.73;3.42;;;;;;;;;;5040135;28;20072;-67
2022/05/29 12:31:36;;;;;;;12.68;3.00;;;;;;;;;;5051810;28;20130;-67
2022/05/29 12:34:03;;;;;;;13.52;3.30;;;;;;;;;;5051568;28;20136;-67
2022/05/29 12:36:49;;;;;;;14.40;2.95;;;;;;;;;;5050485;28;20168;-65
2022/05/29 12:39:34;;;;;;;17.00;3.45;;;;;;;;;;5051886;28;20191;-64
2022/05/29 12:42:13;;;;;;;12.73;2.78;;;;;;;;;;5051658;28;20061;-65
2022/05/29 12:44:47;;;;;;;12.70;2.67;;;;;;;;;;5051576;28;20124;-66
2022/05/29 12:47:22;;;;;;;17.95;3.00;;;;;;;;;;5051858;28;20045;-66
2022/05/29 12:50:17;;;;;;;19.23;3.70;;;;;;;;;;5052539;28;20057;-67
2022/05/29 12:52:58;;;;;;;19.00;3.72;;;;;;;;;;5041909;28;20511;-67
2022/05/29 12:55:27;;;;;;;14.23;2.90;;;;;;;;;;5051980;28;20385;-68
2022/05/29 12:58:13;;;;;;;13.02;2.90;;;;;;;;;;5052405;28;20065;-67
2022/05/29 13:00:39;;;;;;;14.35;3.00;;;;;;;;;;5051789;28;20475;-66
2022/05/29 13:03:19;;;;;;;14.38;2.60;;;;;;;;;;5051625;28;20114;-67
2022/05/29 13:06:02;;;;;;;14.88;3.08;;;;;;;;;;5050766;28;20106;-65
2022/05/29 13:08:41;;;;;;;14.98;3.03;;;;;;;;;;5050360;28;20398;-65
2022/05/29 13:11:08;;;;;;;15.88;2.88;;;;;;;;;;5051115;28;20435;-72
2022/05/29 13:13:34;;;;;;;;;;;;;;;;;;5052216;28;20082;-67
2022/05/29 13:16:18;;;;;;;15.00;3.22;;;;;;;;;;5052399;28;19921;-67
2022/05/29 13:19:37;;;;;;;15.52;3.25;;;;;;;;;;5055769;28;20049;-67
2022/05/29 13:21:55;;;;;;;19.50;4.13;;;;;;;;;;5052795;28;20045;-66
2022/05/29 13:24:22;;;;;;;14.02;3.22;;;;;;;;;;5055633;28;20130;-67
2022/05/29 13:27:07;;;;;;;14.23;2.92;;;;;;;;;;5055914;28;20092;-67
2022/05/29 13:29:40;;;;;;;12.77;2.72;;;;;;;;;;5055040;28;20554;-65
2022/05/29 13:32:15;;;;;;;14.43;2.97;;;;;;;;;;5055127;28;20186;-68
2022/05/29 13:34:41;;;;;;;17.42;2.85;;;;;;;;;;5055427;28;20053;-68
2022/05/29 13:37:26;;;;;;;15.05;3.45;;;;;;;;;;5054166;28;20049;-68
2022/05/29 13:39:56;;;;;;;13.38;2.92;;;;;;;;;;5037001;28;20445;-66
2022/05/29 13:42:30;;;;;;;15.85;3.72;;;;;;;;;;5055067;28;20064;-66
2022/05/29 13:44:56;;;;;;;16.95;2.67;;;;;;;;;;5055738;28;20056;-69
2022/05/29 13:47:23;;;;;;;;;;;;;;;;;;5055576;28;20127;-67
2022/05/29 13:50:04;;;;;;;16.77;3.08;;;;;;;;;;5055247;28;19921;-67
2022/05/29 13:52:43;;;;;;;12.85;2.97;;;;;;;;;;5055588;28;20125;-66
2022/05/29 13:55:12;;;;;;;15.05;3.55;;;;;;;;;;5055108;28;20052;-70
2022/05/29 14:03:59;;;;;;;17.77;3.20;;;;;;;;;;5055272;28;20057;-69
2022/05/29 14:06:25;;;;;;;18.67;3.60;;;;;;;;;;5055153;28;20103;-67
2022/05/29 14:08:58;;;;;;;19.67;3.33;;;;;;;;;;5054836;28;20052;-69
2022/05/29 14:11:43;;;;;;;16.70;3.72;;;;;;;;;;5055271;28;20119;-67
2022/05/29 14:14:27;;;;;;;13.93;3.13;;;;;;;;;;5054101;28;20151;-68
2022/05/29 14:16:54;;;;;;;22.35;3.08;;;;;;;;;;5054250;28;20041;-68
2022/05/29 14:19:21;;;;;;;;;;;;;;;;;;5054118;28;20045;-69
2022/05/29 14:21:47;;;;;;;17.35;3.15;;;;;;;;;;5054114;28;20008;-68
2022/05/29 14:24:34;;;;;;;16.02;3.67;;;;;;;;;;5054257;28;20377;-65
2022/05/29 14:27:10;;;;;;;16.38;3.50;;;;;;;;;;5054670;28;20132;-67
2022/05/29 14:29:55;;;;;;;17.35;3.58;;;;;;;;;;5054109;28;20056;-67
2022/05/29 14:32:32;;;;;;;18.98;3.60;;;;;;;;;;5054877;28;20053;-64
2022/05/29 14:34:58;;;;;;;18.05;2.97;;;;;;;;;;5054087;28;20480;-65
2022/05/29 14:37:45;;;;;;;13.65;2.72;;;;;;;;;;5054025;28;20048;-75
2022/05/29 14:40:14;;;;;;;27.27;3.95;;;;;;;;;;5049652;28;20057;-69
2022/05/29 14:42:41;;;;;;;18.27;3.38;;;;;;;;;;5054312;28;20091;-73
2022/05/29 14:45:09;;;;;;;28.02;4.38;;;;;;;;;;5052886;28;20419;-66
2022/05/29 14:48:02;;;;;;;19.38;3.85;;;;;;;;;;5053602;28;20064;-66
2022/05/29 14:50:40;;;;;;;19.25;3.92;;;;;;;;;;5052530;28;20053;-67
2022/05/29 14:53:16;;;;;;;15.70;3.30;;;;;;;;;;5052401;28;20053;-67
2022/05/29 14:55:47;;;;;;;19.67;3.90;;;;;;;;;;5052348;28;20135;-65
2022/05/29 14:58:27;;;;;;;15.80;3.15;;;;;;;;;;5053839;28;20131;-67
2022/05/29 15:00:54;;;;;;;20.60;3.60;;;;;;;;;;5053467;28;20056;-66
2022/05/29 15:03:27;;;;;;;16.90;2.80;;;;;;;;;;5052670;28;20136;-67
2022/05/29 15:05:57;;;;;;;20.23;3.53;;;;;;;;;;5053465;28;20056;-67
2022/05/29 15:11:17;;;;;;;17.15;3.70;;;;;;;;;;5053281;28;20535;-66
2022/05/29 15:13:57;;;;;;;16.45;3.53;;;;;;;;;;5053104;28;20148;-65
2022/05/29 15:16:44;;;;;;;19.08;3.30;;;;;;;;;;5036190;28;20049;-65
2022/05/29 15:19:12;;;;;;;15.88;3.45;;;;;;;;;;5053229;28;20040;-66
2022/05/29 15:24:30;;;;;;;23.08;3.50;;;;;;;;;;5053497;28;20060;-66
2022/05/29 15:27:04;;;;;;;14.77;3.63;;;;;;;;;;5052895;28;20045;-66
2022/05/29 15:29:36;;;;;;;15.68;3.63;;;;;;;;;;5052818;28;20045;-65
2022/05/29 15:32:04;;;;;;;19.27;3.58;;;;;;;;;;5053154;28;20045;-67
2022/05/29 15:34:49;;;;;;;21.63;3.92;;;;;;;;;;5053370;28;20045;-66
2022/05/29 15:37:21;;;;;;;14.43;3.53;;;;;;;;;;5052921;28;20404;-66